Metar Aviation Weather Data KVNC

88°F Temp
70°F Dewpoint
% Humidity
Temperature
15 MPH
24 KM/H
13 KTS
90°
Due East

Wind Speed
Mostly Cloudy
Conditions
Pressure 1019.62 (hPa) - 30.11 (in)
Visibility 10.0 (mi) - 16 (km)

Current Conditions
KVNC
Metar :KVNC 211635Z AUTO 09013G22KT 10SM BKN039 31/21 A3011 RMK AO2
Sat 21st September 12:35 pm

  Metar Aviation API Data Provided by https://www.checkwx.com/ PHP scripts by weather34.com ©2019